Corrour, United Kingdom
Current Conditions -  °F | °C
As of 8:50 PM on Wednesday 26 Nov 2014 (Local Time) from EGPN Reporting Station
Scattered Clouds Scattered Clouds  
Wind Chill: 41°   Ceiling: Unl
Heat Index: 41°   Visibility: 5mi
Dew Point: 41°   Wind: 1mph
Humidity: 100%   Direction: 310°NW
Pressure: 29.83"   Gusts: NA
Location:  56.79°N, 4.6°W
Report Text: EGPN 262050Z 31001KT 8000 FEW010 SCT049 05/05 Q1010
Loading
Personal Weather Stations






























Interactive Weather Map New forecast layout! Learn more

10-Day Weather Forecast

Advertisements
Track Severe Weather on mobile